Time;durP1;ratioP1;P1;durP2;ratioP2;P2;SDS_P1;SDS_P2;PMS_P1;PMS_P2;Temp;Humidity;BMP_temperature;BMP_pressure;BME280_temperature;BME280_humidity;BME280_pressure;Samples;Min_cycle;Max_cycle;Signal;HPM_P1;HPM_P2
2022/07/19 00:00:23;;;;;;;2.92;1.80;;;;;;;;;;4983620;28;20078;-74
2022/07/19 00:02:48;;;;;;;4.28;1.83;;;;;;;;;;4964491;28;20045;-72
2022/07/19 00:05:14;;;;;;;7.07;1.63;;;;;;;;;;4983587;28;20061;-74
2022/07/19 00:07:41;;;;;;;5.03;1.80;;;;;;;;;;4982670;28;20499;-74
2022/07/19 00:10:09;;;;;;;5.05;1.83;;;;;;;;;;4982951;28;20034;-74
2022/07/19 00:12:35;;;;;;;3.70;2.38;;;;;;;;;;4982245;28;20030;-74
2022/07/19 00:15:01;;;;;;;5.03;2.45;;;;;;;;;;4982728;28;20034;-73
2022/07/19 00:17:27;;;;;;;5.57;2.65;;;;;;;;;;4982773;28;20093;-73
2022/07/19 00:19:52;;;;;;;5.82;2.28;;;;;;;;;;4982731;28;20045;-74
2022/07/19 00:22:18;;;;;;;7.82;2.60;;;;;;;;;;4982525;28;20042;-72
2022/07/19 00:24:43;;;;;;;4.72;2.35;;;;;;;;;;4981793;28;20080;-74
2022/07/19 00:27:08;;;;;;;6.05;2.28;;;;;;;;;;4982762;28;20034;-74
2022/07/19 00:29:34;;;;;;;3.55;2.10;;;;;;;;;;4982424;28;20180;-70
2022/07/19 00:31:59;;;;;;;9.20;2.58;;;;;;;;;;4964987;28;20543;-74
2022/07/19 00:34:25;;;;;;;6.63;2.22;;;;;;;;;;4981874;28;20167;-73
2022/07/19 00:36:50;;;;;;;3.30;2.38;;;;;;;;;;4982490;28;20034;-74
2022/07/19 00:39:15;;;;;;;3.75;2.67;;;;;;;;;;4982970;28;20184;-74
2022/07/19 00:41:43;;;;;;;6.22;2.17;;;;;;;;;;4964872;28;20085;-75
2022/07/19 00:44:10;;;;;;;4.82;1.88;;;;;;;;;;4982760;28;20080;-74
2022/07/19 00:46:36;;;;;;;6.70;2.15;;;;;;;;;;4964116;28;20100;-73
2022/07/19 00:49:02;;;;;;;2.65;2.10;;;;;;;;;;4965446;28;20399;-73
2022/07/19 00:51:28;;;;;;;2.10;1.90;;;;;;;;;;4965226;28;20380;-74
2022/07/19 00:53:54;;;;;;;1.90;1.70;;;;;;;;;;4983245;28;20109;-73
2022/07/19 00:56:22;;;;;;;3.50;1.50;;;;;;;;;;4981849;28;20510;-74
2022/07/19 00:58:48;;;;;;;2.38;1.60;;;;;;;;;;4982307;28;20038;-75
2022/07/19 01:01:14;;;;;;;2.67;1.80;;;;;;;;;;4982076;28;20041;-73
2022/07/19 01:03:40;;;;;;;2.75;1.90;;;;;;;;;;4981806;28;20042;-74
2022/07/19 01:06:06;;;;;;;3.22;1.63;;;;;;;;;;4981827;28;20030;-73
2022/07/19 01:08:32;;;;;;;7.05;1.92;;;;;;;;;;4981370;28;20030;-73
2022/07/19 01:10:58;;;;;;;3.85;1.90;;;;;;;;;;4982022;28;20037;-73
2022/07/19 01:13:24;;;;;;;7.13;1.67;;;;;;;;;;4982269;28;20045;-72
2022/07/19 01:15:50;;;;;;;2.50;1.80;;;;;;;;;;4982013;28;20038;-74
2022/07/19 01:18:15;;;;;;;2.53;1.83;;;;;;;;;;4963978;28;20046;-74
2022/07/19 01:20:41;;;;;;;3.20;1.90;;;;;;;;;;4981800;28;20042;-73
2022/07/19 01:23:06;;;;;;;2.75;1.90;;;;;;;;;;4981520;28;20101;-73
2022/07/19 01:25:34;;;;;;;2.50;1.90;;;;;;;;;;4981884;28;20452;-74
2022/07/19 01:28:00;;;;;;;2.38;1.88;;;;;;;;;;4964338;28;20536;-75
2022/07/19 01:30:27;;;;;;;1.85;1.75;;;;;;;;;;4976878;28;20069;-73
2022/07/19 01:32:53;;;;;;;2.50;1.75;;;;;;;;;;4981074;28;20116;-75
2022/07/19 01:35:19;;;;;;;3.85;1.80;;;;;;;;;;4981606;28;20043;-74
2022/07/19 01:37:45;;;;;;;2.03;1.80;;;;;;;;;;4964000;28;20499;-74
2022/07/19 01:40:14;;;;;;;2.15;1.77;;;;;;;;;;4963829;28;20046;-74
2022/07/19 01:42:40;;;;;;;1.60;1.50;;;;;;;;;;4947610;28;20038;-74
2022/07/19 01:45:07;;;;;;;4.68;1.80;;;;;;;;;;4981530;28;20045;-74
2022/07/19 01:47:33;;;;;;;2.92;2.03;;;;;;;;;;4981432;28;20045;-74
2022/07/19 01:49:58;;;;;;;2.95;2.00;;;;;;;;;;4981608;28;20042;-76
2022/07/19 01:52:24;;;;;;;2.53;2.03;;;;;;;;;;4980607;28;20042;-73
2022/07/19 01:54:49;;;;;;;3.35;2.00;;;;;;;;;;4981399;28;20042;-74
2022/07/19 01:57:14;;;;;;;4.30;2.03;;;;;;;;;;4981605;28;20038;-73
2022/07/19 01:59:40;;;;;;;3.83;2.00;;;;;;;;;;4981402;28;20038;-74
2022/07/19 02:02:06;;;;;;;2.83;1.95;;;;;;;;;;4981733;28;20062;-73
2022/07/19 02:04:31;;;;;;;2.60;2.40;;;;;;;;;;4981474;28;20404;-75
2022/07/19 02:06:57;;;;;;;2.33;1.83;;;;;;;;;;4982877;28;20137;-72
2022/07/19 02:09:22;;;;;;;3.97;1.90;;;;;;;;;;4985175;28;20034;-73
2022/07/19 02:11:48;;;;;;;1.90;1.67;;;;;;;;;;4985125;28;20049;-73
2022/07/19 02:14:13;;;;;;;4.03;1.92;;;;;;;;;;4966930;28;20419;-72
2022/07/19 02:16:39;;;;;;;3.25;2.10;;;;;;;;;;4985192;28;20113;-72
2022/07/19 02:19:06;;;;;;;6.72;2.72;;;;;;;;;;4967724;28;20038;-72
2022/07/19 02:21:33;;;;;;;3.10;2.00;;;;;;;;;;4985044;28;20041;-75
2022/07/19 02:23:58;;;;;;;4.18;2.25;;;;;;;;;;4985087;28;20030;-72
2022/07/19 02:26:24;;;;;;;2.50;2.30;;;;;;;;;;4983951;28;20041;-74
2022/07/19 02:28:50;;;;;;;4.55;2.15;;;;;;;;;;4985197;28;20121;-72
2022/07/19 02:31:15;;;;;;;2.58;1.85;;;;;;;;;;4984596;28;20045;-73
2022/07/19 02:33:41;;;;;;;2.33;2.00;;;;;;;;;;4984737;28;20034;-73
2022/07/19 02:36:06;;;;;;;3.03;1.92;;;;;;;;;;4983868;28;20040;-73
2022/07/19 02:38:32;;;;;;;2.33;2.00;;;;;;;;;;4984753;28;20039;-73
2022/07/19 02:40:57;;;;;;;4.40;2.28;;;;;;;;;;4967013;28;20038;-72
2022/07/19 02:43:23;;;;;;;6.47;2.20;;;;;;;;;;4984443;28;20077;-74
2022/07/19 02:45:48;;;;;;;3.15;2.03;;;;;;;;;;4984301;28;20042;-75
2022/07/19 02:48:14;;;;;;;2.38;2.03;;;;;;;;;;4966274;28;20066;-74
2022/07/19 02:50:39;;;;;;;6.95;2.13;;;;;;;;;;4984083;28;20034;-74
2022/07/19 02:53:04;;;;;;;2.40;2.10;;;;;;;;;;4984426;28;20109;-74
2022/07/19 02:55:31;;;;;;;2.15;1.65;;;;;;;;;;4984348;28;20638;-73
2022/07/19 02:57:56;;;;;;;2.30;1.77;;;;;;;;;;4984182;28;20049;-72
2022/07/19 03:00:22;;;;;;;2.28;1.95;;;;;;;;;;4966580;28;20046;-72
2022/07/19 03:02:47;;;;;;;5.05;1.95;;;;;;;;;;4984539;28;20069;-75
2022/07/19 03:05:12;;;;;;;2.08;1.80;;;;;;;;;;4984971;28;20049;-72
2022/07/19 03:07:38;;;;;;;1.92;1.75;;;;;;;;;;4986579;28;20504;-72
2022/07/19 03:10:05;;;;;;;3.88;2.13;;;;;;;;;;4985005;28;20045;-73
2022/07/19 03:12:30;;;;;;;4.72;1.60;;;;;;;;;;4984230;28;20038;-72
2022/07/19 03:14:55;;;;;;;3.47;1.80;;;;;;;;;;4985823;28;20100;-72
2022/07/19 03:17:21;;;;;;;5.00;1.70;;;;;;;;;;4966585;28;20046;-73
2022/07/19 03:19:46;;;;;;;1.73;1.63;;;;;;;;;;4983215;28;20069;-72
2022/07/19 03:22:12;;;;;;;1.63;1.52;;;;;;;;;;4966534;28;20064;-73
2022/07/19 03:24:38;;;;;;;3.33;1.77;;;;;;;;;;4984604;28;20506;-73
2022/07/19 03:27:04;;;;;;;1.85;1.73;;;;;;;;;;4983850;28;20034;-73
2022/07/19 03:29:29;;;;;;;2.30;1.98;;;;;;;;;;4982407;28;20038;-74
2022/07/19 03:31:55;;;;;;;4.25;1.90;;;;;;;;;;4982401;28;20125;-71
2022/07/19 03:34:21;;;;;;;3.67;1.70;;;;;;;;;;4984548;28;20141;-74
2022/07/19 03:36:46;;;;;;;3.67;1.65;;;;;;;;;;4983697;28;20062;-73
2022/07/19 03:39:11;;;;;;;1.63;1.50;;;;;;;;;;4983701;28;20038;-74
2022/07/19 03:41:37;;;;;;;1.77;1.45;;;;;;;;;;4983042;28;20144;-73
2022/07/19 03:44:02;;;;;;;3.55;1.75;;;;;;;;;;4983628;28;20479;-74
2022/07/19 03:46:28;;;;;;;1.80;1.70;;;;;;;;;;4981081;28;20090;-72
2022/07/19 03:48:55;;;;;;;3.85;1.85;;;;;;;;;;4966097;28;20837;-74
2022/07/19 03:51:22;;;;;;;2.95;1.80;;;;;;;;;;4966268;28;20511;-73
2022/07/19 03:53:47;;;;;;;1.98;1.70;;;;;;;;;;4982080;28;20045;-73
2022/07/19 03:56:13;;;;;;;4.00;1.90;;;;;;;;;;4965911;28;20038;-72
2022/07/19 03:58:39;;;;;;;6.00;2.42;;;;;;;;;;4966116;28;20529;-75
2022/07/19 04:01:06;;;;;;;2.33;2.10;;;;;;;;;;4965535;28;20038;-75
2022/07/19 04:03:37;;;;;;;6.53;2.08;;;;;;;;;;4982434;28;20475;-73
2022/07/19 04:06:03;;;;;;;5.85;1.83;;;;;;;;;;4965478;28;20042;-73
2022/07/19 04:08:29;;;;;;;4.07;1.55;;;;;;;;;;4965529;28;20061;-73
2022/07/19 04:10:54;;;;;;;2.40;1.90;;;;;;;;;;4983428;28;20073;-73
2022/07/19 04:13:20;;;;;;;1.98;1.73;;;;;;;;;;4966203;28;20122;-74
2022/07/19 04:15:45;;;;;;;1.90;1.80;;;;;;;;;;4964957;28;20133;-73
2022/07/19 04:18:10;;;;;;;4.10;2.00;;;;;;;;;;4983185;28;20054;-73
2022/07/19 04:20:36;;;;;;;2.28;1.92;;;;;;;;;;4982288;28;20022;-73
2022/07/19 04:23:01;;;;;;;3.83;1.80;;;;;;;;;;4964750;28;20502;-73
2022/07/19 04:25:27;;;;;;;7.53;2.08;;;;;;;;;;4981534;28;20069;-73
2022/07/19 04:27:52;;;;;;;4.57;2.15;;;;;;;;;;4981917;28;20038;-73
2022/07/19 04:30:18;;;;;;;3.03;1.80;;;;;;;;;;4963389;28;21229;-74
2022/07/19 04:32:43;;;;;;;2.67;2.10;;;;;;;;;;4964205;28;20039;-73
2022/07/19 04:35:09;;;;;;;2.10;1.80;;;;;;;;;;4982388;28;20038;-74
2022/07/19 04:37:34;;;;;;;2.53;1.98;;;;;;;;;;4963509;28;20034;-73
2022/07/19 04:39:59;;;;;;;2.72;2.00;;;;;;;;;;4981522;28;20478;-73
2022/07/19 04:42:25;;;;;;;2.35;1.95;;;;;;;;;;4981060;28;20061;-75
2022/07/19 04:44:50;;;;;;;6.50;2.40;;;;;;;;;;4981973;28;20379;-73
2022/07/19 04:47:16;;;;;;;4.10;2.10;;;;;;;;;;4981848;28;20034;-73
2022/07/19 04:49:41;;;;;;;4.18;1.83;;;;;;;;;;4981349;28;20049;-73
2022/07/19 04:52:06;;;;;;;4.03;1.80;;;;;;;;;;4964799;28;20122;-74
2022/07/19 04:54:32;;;;;;;2.10;2.00;;;;;;;;;;4983235;28;20805;-73
2022/07/19 04:56:57;;;;;;;1.98;1.70;;;;;;;;;;4964594;28;20403;-73
2022/07/19 04:59:23;;;;;;;4.88;2.10;;;;;;;;;;4962363;28;20096;-73
2022/07/19 05:01:48;;;;;;;5.97;2.03;;;;;;;;;;4963747;28;20049;-73
2022/07/19 05:04:14;;;;;;;2.67;1.90;;;;;;;;;;4981715;28;20038;-73
2022/07/19 05:06:39;;;;;;;6.45;1.88;;;;;;;;;;4981587;28;20054;-74
2022/07/19 05:09:05;;;;;;;2.58;2.20;;;;;;;;;;4978506;28;20030;-73
2022/07/19 05:11:30;;;;;;;3.15;1.77;;;;;;;;;;4977008;28;20030;-75
2022/07/19 05:13:56;;;;;;;2.20;2.00;;;;;;;;;;4962179;28;20030;-74
2022/07/19 05:16:21;;;;;;;3.17;2.00;;;;;;;;;;4979672;28;20033;-72
2022/07/19 05:18:47;;;;;;;4.35;1.77;;;;;;;;;;4980263;28;20463;-73
2022/07/19 05:21:12;;;;;;;2.22;1.90;;;;;;;;;;4978878;28;20539;-73
2022/07/19 05:23:40;;;;;;;6.13;1.75;;;;;;;;;;4979604;28;20868;-74
2022/07/19 05:26:05;;;;;;;2.53;1.90;;;;;;;;;;4979888;28;20066;-72
2022/07/19 05:28:31;;;;;;;3.05;2.05;;;;;;;;;;4980902;28;20148;-73
2022/07/19 05:30:56;;;;;;;5.18;1.70;;;;;;;;;;4964230;28;20038;-75
2022/07/19 05:33:22;;;;;;;3.55;1.80;;;;;;;;;;4979923;28;20078;-74
2022/07/19 05:35:47;;;;;;;2.85;2.00;;;;;;;;;;4981275;28;20022;-74
2022/07/19 05:38:13;;;;;;;2.08;1.83;;;;;;;;;;4981149;28;20038;-72
2022/07/19 05:40:38;;;;;;;2.47;1.80;;;;;;;;;;4981327;28;20042;-75
2022/07/19 05:43:03;;;;;;;4.38;2.00;;;;;;;;;;4965930;28;20034;-72
2022/07/19 05:45:29;;;;;;;6.65;2.15;;;;;;;;;;4985032;28;20105;-73
2022/07/19 05:47:54;;;;;;;3.20;2.00;;;;;;;;;;4985032;28;20038;-72
2022/07/19 05:50:20;;;;;;;2.20;2.10;;;;;;;;;;4982199;28;20068;-72
2022/07/19 05:52:45;;;;;;;5.20;1.85;;;;;;;;;;4983764;28;20088;-75
2022/07/19 05:55:11;;;;;;;4.00;1.90;;;;;;;;;;4984194;28;20521;-74
2022/07/19 05:57:36;;;;;;;4.07;2.20;;;;;;;;;;4984509;28;20031;-74
2022/07/19 06:00:04;;;;;;;5.80;2.30;;;;;;;;;;4985020;28;20073;-76
2022/07/19 06:02:37;;;;;;;6.40;2.30;;;;;;;;;;4978912;28;20549;-73
2022/07/19 06:05:02;;;;;;;4.05;2.20;;;;;;;;;;4983248;28;20046;-73
2022/07/19 06:07:28;;;;;;;2.33;2.15;;;;;;;;;;4983906;28;20087;-72
2022/07/19 06:09:53;;;;;;;7.07;2.53;;;;;;;;;;4984213;28;20534;-75
2022/07/19 06:12:19;;;;;;;3.38;2.33;;;;;;;;;;4966906;28;20128;-71
2022/07/19 06:14:44;;;;;;;4.63;2.17;;;;;;;;;;4984437;28;20909;-72
2022/07/19 06:17:10;;;;;;;2.45;2.25;;;;;;;;;;4984598;28;20480;-72
2022/07/19 06:19:35;;;;;;;2.67;2.15;;;;;;;;;;4985802;28;20073;-72
2022/07/19 06:22:01;;;;;;;4.70;2.33;;;;;;;;;;4990063;28;20038;-70
2022/07/19 06:24:26;;;;;;;4.90;2.55;;;;;;;;;;4969068;28;20042;-71
2022/07/19 06:26:52;;;;;;;3.30;2.25;;;;;;;;;;4983915;28;20088;-71
2022/07/19 06:29:17;;;;;;;2.08;1.88;;;;;;;;;;4966894;28;20038;-72
2022/07/19 06:31:43;;;;;;;2.80;2.20;;;;;;;;;;4984065;28;20038;-75
2022/07/19 06:34:09;;;;;;;4.20;1.75;;;;;;;;;;4966460;28;20035;-71
2022/07/19 06:36:34;;;;;;;4.20;2.35;;;;;;;;;;4984678;28;20046;-71
2022/07/19 06:39:00;;;;;;;3.22;2.20;;;;;;;;;;4983752;28;20073;-73
2022/07/19 06:41:25;;;;;;;3.85;1.95;;;;;;;;;;4984664;28;20117;-72
2022/07/19 06:43:51;;;;;;;5.35;2.08;;;;;;;;;;4985465;28;20034;-73
2022/07/19 06:46:16;;;;;;;2.95;2.05;;;;;;;;;;4985009;28;20038;-73
2022/07/19 06:48:42;;;;;;;6.82;2.10;;;;;;;;;;4966597;28;20093;-72
2022/07/19 06:51:08;;;;;;;3.35;2.03;;;;;;;;;;4984405;28;20392;-73
2022/07/19 06:53:34;;;;;;;4.00;1.77;;;;;;;;;;4983019;28;20034;-72
2022/07/19 06:55:59;;;;;;;2.30;1.90;;;;;;;;;;4984059;28;20030;-72
2022/07/19 06:58:25;;;;;;;2.30;1.80;;;;;;;;;;4966533;28;20414;-70
2022/07/19 07:00:51;;;;;;;2.58;1.80;;;;;;;;;;4965207;28;20030;-72
2022/07/19 07:03:18;;;;;;;3.45;1.92;;;;;;;;;;4983827;28;20041;-72
2022/07/19 07:05:44;;;;;;;2.88;1.80;;;;;;;;;;4983324;28;20042;-72
2022/07/19 07:08:10;;;;;;;1.65;1.55;;;;;;;;;;4967062;28;20040;-73
2022/07/19 07:10:35;;;;;;;4.68;1.70;;;;;;;;;;4983128;28;20046;-75
2022/07/19 07:13:01;;;;;;;2.15;1.63;;;;;;;;;;4983475;28;20153;-76
2022/07/19 07:15:26;;;;;;;2.78;1.63;;;;;;;;;;4982960;28;20070;-73
2022/07/19 07:17:52;;;;;;;2.08;1.70;;;;;;;;;;4983220;28;20396;-71
2022/07/19 07:20:17;;;;;;;2.28;1.40;;;;;;;;;;4966597;28;20070;-74
2022/07/19 07:22:43;;;;;;;1.80;1.70;;;;;;;;;;4982218;28;20077;-72
2022/07/19 07:25:09;;;;;;;2.67;1.63;;;;;;;;;;4983612;28;20050;-74
2022/07/19 07:27:35;;;;;;;2.20;1.60;;;;;;;;;;4964505;28;20049;-71
2022/07/19 07:30:00;;;;;;;1.63;1.52;;;;;;;;;;4982830;28;20035;-72
2022/07/19 07:32:26;;;;;;;4.22;1.52;;;;;;;;;;4982085;28;20030;-73
2022/07/19 07:35:01;;;;;;;3.83;1.83;;;;;;;;;;4983145;28;20042;-72
2022/07/19 07:37:30;;;;;;;2.08;1.63;;;;;;;;;;4982686;28;20130;-74
2022/07/19 07:39:56;;;;;;;3.17;1.60;;;;;;;;;;4982995;28;20125;-70
2022/07/19 07:42:25;;;;;;;1.73;1.38;;;;;;;;;;4983125;28;20122;-71
2022/07/19 07:45:00;;;;;;;1.60;1.33;;;;;;;;;;4982413;28;20541;-72
2022/07/19 07:47:29;;;;;;;5.68;2.42;;;;;;;;;;4982296;28;20042;-71
2022/07/19 07:49:58;;;;;;;2.33;1.70;;;;;;;;;;4981638;28;20034;-70
2022/07/19 07:52:26;;;;;;;1.55;1.45;;;;;;;;;;4982473;28;20066;-72
2022/07/19 07:54:54;;;;;;;2.63;1.67;;;;;;;;;;4982413;28;20038;-72
2022/07/19 07:59:57;;;;;;;4.30;1.60;;;;;;;;;;4968093;23;20047;-69
2022/07/19 08:02:27;;;;;;;7.38;2.10;;;;;;;;;;4959620;28;20062;-73
2022/07/19 08:04:55;;;;;;;5.53;1.83;;;;;;;;;;4961592;28;20041;-71
2022/07/19 08:07:31;;;;;;;3.58;1.60;;;;;;;;;;4945646;28;20039;-72
2022/07/19 08:10:01;;;;;;;4.07;1.88;;;;;;;;;;4946801;28;20487;-72
2022/07/19 08:12:32;;;;;;;3.70;1.77;;;;;;;;;;4962505;28;20039;-73
2022/07/19 08:15:03;;;;;;;3.30;2.10;;;;;;;;;;4962242;28;20042;-71
2022/07/19 08:17:34;;;;;;;4.63;1.98;;;;;;;;;;4945549;28;20122;-70
2022/07/19 08:20:03;;;;;;;2.05;1.70;;;;;;;;;;4963793;28;20047;-71
2022/07/19 08:22:39;;;;;;;2.88;1.83;;;;;;;;;;4962886;28;20406;-72
2022/07/19 08:25:08;;;;;;;4.65;1.75;;;;;;;;;;4962761;28;20030;-73
2022/07/19 08:27:53;;;;;;;4.65;1.65;;;;;;;;;;5028305;28;20824;-72
2022/07/19 08:30:26;;;;;;;3.40;1.92;;;;;;;;;;5018367;28;20025;-72
2022/07/19 08:32:55;;;;;;;3.15;2.20;;;;;;;;;;5017716;28;20748;-72
2022/07/19 08:35:24;;;;;;;8.07;2.03;;;;;;;;;;5018682;28;20029;-71
2022/07/19 08:38:00;;;;;;;5.72;2.40;;;;;;;;;;5018714;28;20044;-70
2022/07/19 08:40:29;;;;;;;4.68;1.77;;;;;;;;;;5017339;28;20428;-73
2022/07/19 08:43:03;;;;;;;1.98;1.73;;;;;;;;;;5017691;28;20175;-73
2022/07/19 08:45:32;;;;;;;5.35;1.90;;;;;;;;;;5018797;28;20763;-72
2022/07/19 08:48:08;;;;;;;4.65;2.15;;;;;;;;;;5017901;28;20787;-72
2022/07/19 08:50:44;;;;;;;6.32;2.03;;;;;;;;;;5015875;28;20041;-74
2022/07/19 08:53:16;;;;;;;3.22;1.90;;;;;;;;;;5017618;28;20498;-71
2022/07/19 08:55:44;;;;;;;2.50;1.60;;;;;;;;;;5017570;28;20115;-72
2022/07/19 08:58:15;;;;;;;6.55;1.98;;;;;;;;;;5017901;28;20034;-71
2022/07/19 09:00:43;;;;;;;;;;;;;;;;;;5017534;28;20045;-72
2022/07/19 09:03:21;;;;;;;1.70;1.50;;;;;;;;;;5017548;28;19917;-74
2022/07/19 09:06:05;;;;;;;2.03;1.45;;;;;;;;;;5017876;28;20648;-74
2022/07/19 09:08:46;;;;;;;2.20;1.48;;;;;;;;;;5017928;28;20719;-72
2022/07/19 09:11:31;;;;;;;;;;;;;;;;;;5008243;28;20029;-72
2022/07/19 09:14:13;;;;;;;10.35;2.33;;;;;;;;;;5022126;28;19921;-72
2022/07/19 09:16:48;;;;;;;2.25;1.50;;;;;;;;;;5016503;28;20026;-70
2022/07/19 09:19:19;;;;;;;3.80;1.50;;;;;;;;;;5016160;28;20517;-74
2022/07/19 09:21:55;;;;;;;;;;;;;;;;;;5016388;28;20037;-70
2022/07/19 09:24:25;;;;;;;3.30;1.63;;;;;;;;;;5013974;28;19979;-74
2022/07/19 09:27:01;;;;;;;17.02;2.83;;;;;;;;;;5015270;28;20039;-73
2022/07/19 09:29:37;;;;;;;17.08;2.78;;;;;;;;;;5016499;28;20038;-71
2022/07/19 09:32:03;;;;;;;4.50;1.50;;;;;;;;;;5014660;28;20064;-72
2022/07/19 09:34:37;;;;;;;2.03;1.42;;;;;;;;;;5014629;28;20029;-73
2022/07/19 09:37:10;;;;;;;1.58;1.20;;;;;;;;;;5013303;28;20025;-72
2022/07/19 09:39:45;;;;;;;1.53;1.33;;;;;;;;;;5002805;28;20030;-75
2022/07/19 09:42:37;;;;;;;2.10;1.08;;;;;;;;;;5002277;28;20076;-73
2022/07/19 09:45:10;;;;;;;1.83;1.30;;;;;;;;;;5001373;28;20105;-74
2022/07/19 09:47:55;;;;;;;3.83;1.25;;;;;;;;;;5002281;28;20029;-72
2022/07/19 09:50:26;;;;;;;13.15;2.10;;;;;;;;;;5002080;28;20026;-72
2022/07/19 09:52:56;;;;;;;11.18;1.58;;;;;;;;;;5002294;28;20055;-74
2022/07/19 09:55:27;;;;;;;6.00;1.30;;;;;;;;;;5001119;28;20053;-75
2022/07/19 09:58:03;;;;;;;3.10;1.27;;;;;;;;;;5002477;28;20039;-73
2022/07/19 10:00:41;;;;;;;3.17;1.33;;;;;;;;;;4992484;28;20037;-74
2022/07/19 10:03:17;;;;;;;1.30;1.20;;;;;;;;;;5002384;28;20037;-73
2022/07/19 10:05:46;;;;;;;1.17;1.08;;;;;;;;;;4991155;28;20054;-76
2022/07/19 10:08:15;;;;;;;4.28;1.00;;;;;;;;;;5000938;28;20029;-73
2022/07/19 10:10:50;;;;;;;7.53;1.52;;;;;;;;;;5001814;28;20079;-71
2022/07/19 10:13:19;;;;;;;4.80;1.52;;;;;;;;;;5000755;28;20120;-72
2022/07/19 10:15:55;;;;;;;5.97;1.17;;;;;;;;;;5001553;28;20049;-75
2022/07/19 10:18:28;;;;;;;1.20;1.10;;;;;;;;;;5000943;28;20053;-73
2022/07/19 10:21:00;;;;;;;4.07;1.40;;;;;;;;;;5001033;28;20104;-76
2022/07/19 10:23:37;;;;;;;4.72;1.30;;;;;;;;;;5001802;28;20061;-72
2022/07/19 10:26:06;;;;;;;3.28;1.10;;;;;;;;;;5001126;28;20085;-70
2022/07/19 10:28:37;;;;;;;4.00;1.48;;;;;;;;;;5000367;28;20065;-71
2022/07/19 10:31:26;;;;;;;2.00;1.15;;;;;;;;;;5000986;28;20161;-74
2022/07/19 10:34:23;;;;;;;1.30;1.20;;;;;;;;;;5000626;28;20368;-76
2022/07/19 10:36:53;;;;;;;1.70;1.10;;;;;;;;;;5004174;28;20077;-75
2022/07/19 10:39:24;;;;;;;3.70;1.20;;;;;;;;;;5000226;28;20030;-75
2022/07/19 10:42:16;;;;;;;2.85;1.35;;;;;;;;;;5001481;28;20054;-75
2022/07/19 10:45:08;;;;;;;2.95;1.20;;;;;;;;;;5000940;28;20068;-73
2022/07/19 10:47:49;;;;;;;2.35;1.20;;;;;;;;;;5000811;28;20054;-75
2022/07/19 10:50:21;;;;;;;4.88;1.13;;;;;;;;;;5000141;28;20041;-72
2022/07/19 10:52:50;;;;;;;1.65;1.15;;;;;;;;;;5002430;28;20429;-73
2022/07/19 10:55:25;;;;;;;3.90;1.45;;;;;;;;;;5002283;28;20101;-74
2022/07/19 10:58:06;;;;;;;2.58;1.20;;;;;;;;;;5010319;28;20502;-72
2022/07/19 11:00:43;;;;;;;2.22;1.30;;;;;;;;;;5002691;28;20087;-70
2022/07/19 11:03:28;;;;;;;6.70;1.70;;;;;;;;;;5000619;28;20501;-74
2022/07/19 11:06:04;;;;;;;9.50;1.80;;;;;;;;;;5002563;28;20726;-74
2022/07/19 11:08:34;;;;;;;2.05;1.02;;;;;;;;;;5002715;28;20538;-72
2022/07/19 11:11:15;;;;;;;1.25;1.13;;;;;;;;;;5002271;28;20990;-74
2022/07/19 11:13:52;;;;;;;3.60;1.30;;;;;;;;;;4993127;28;20502;-71
2022/07/19 11:16:19;;;;;;;3.63;1.10;;;;;;;;;;5002706;28;20117;-71
2022/07/19 11:18:45;;;;;;;3.40;0.95;;;;;;;;;;5001574;28;20120;-71
2022/07/19 11:21:18;;;;;;;6.88;1.33;;;;;;;;;;5002068;28;20558;-70
2022/07/19 11:23:47;;;;;;;17.75;2.90;;;;;;;;;;4988926;28;20049;-70
2022/07/19 11:26:17;;;;;;;3.00;1.17;;;;;;;;;;5001692;28;20398;-70
2022/07/19 11:28:45;;;;;;;1.60;1.05;;;;;;;;;;5002378;28;20110;-71
2022/07/19 11:31:13;;;;;;;3.33;1.05;;;;;;;;;;5001642;28;20384;-72
2022/07/19 11:33:41;;;;;;;1.83;1.27;;;;;;;;;;5001677;28;20905;-73
2022/07/19 11:36:08;;;;;;;1.75;1.20;;;;;;;;;;5001475;28;20445;-71
2022/07/19 11:38:53;;;;;;;3.13;1.45;;;;;;;;;;5002816;28;20092;-75
2022/07/19 11:41:27;;;;;;;1.73;1.27;;;;;;;;;;5002008;28;20430;-73
2022/07/19 11:43:56;;;;;;;3.80;1.40;;;;;;;;;;5001809;28;20030;-72
2022/07/19 11:46:28;;;;;;;3.33;1.20;;;;;;;;;;5001071;28;20466;-74
2022/07/19 11:48:59;;;;;;;1.95;1.38;;;;;;;;;;5002274;28;20415;-73
2022/07/19 11:51:29;;;;;;;3.10;1.40;;;;;;;;;;5001882;28;20130;-75
2022/07/19 11:54:02;;;;;;;6.70;1.60;;;;;;;;;;5001830;28;20125;-72
2022/07/19 11:56:33;;;;;;;2.58;1.48;;;;;;;;;;5001132;28;20061;-74
2022/07/19 11:59:02;;;;;;;3.33;1.58;;;;;;;;;;5002450;28;20824;-72
2022/07/19 12:01:33;;;;;;;4.22;1.55;;;;;;;;;;5001848;28;20398;-74
2022/07/19 12:04:06;;;;;;;2.78;1.80;;;;;;;;;;5001753;28;20077;-70
2022/07/19 12:06:43;;;;;;;5.25;1.77;;;;;;;;;;5001144;28;20164;-72
2022/07/19 12:09:24;;;;;;;2.00;1.70;;;;;;;;;;5001058;28;20107;-72
2022/07/19 12:11:53;;;;;;;2.42;1.60;;;;;;;;;;5002173;28;20030;-74
2022/07/19 12:15:17;;;;;;;3.25;1.60;;;;;;;;;;5001936;28;20042;-73
2022/07/19 12:17:55;;;;;;;3.17;1.45;;;;;;;;;;5001777;28;20034;-73
2022/07/19 12:20:31;;;;;;;3.20;1.80;;;;;;;;;;5000492;28;20029;-72
2022/07/19 12:23:18;;;;;;;4.60;2.10;;;;;;;;;;4999940;28;20026;-73
2022/07/19 12:25:47;;;;;;;1.80;1.70;;;;;;;;;;5000525;28;20034;-72
2022/07/19 12:28:34;;;;;;;3.58;2.00;;;;;;;;;;5001609;28;20033;-72
2022/07/19 12:31:04;;;;;;;6.25;2.30;;;;;;;;;;4998675;28;20684;-74
2022/07/19 12:33:30;;;;;;;2.95;2.00;;;;;;;;;;5001439;28;20037;-76
2022/07/19 12:35:56;;;;;;;6.28;2.35;;;;;;;;;;5000195;28;20034;-74
2022/07/19 12:38:37;;;;;;;3.20;2.05;;;;;;;;;;4999950;28;20083;-76
2022/07/19 12:41:19;;;;;;;3.33;2.20;;;;;;;;;;4998253;28;20056;-74
2022/07/19 12:43:45;;;;;;;4.38;2.20;;;;;;;;;;4999370;28;20048;-75
2022/07/19 12:46:12;;;;;;;2.65;1.92;;;;;;;;;;4998816;28;20033;-75
2022/07/19 12:48:49;;;;;;;5.70;2.33;;;;;;;;;;4999421;28;20041;-76
2022/07/19 12:51:24;;;;;;;4.50;2.50;;;;;;;;;;4997207;28;20451;-74
2022/07/19 12:53:59;;;;;;;6.85;2.58;;;;;;;;;;5000253;28;20044;-73
2022/07/19 12:56:28;;;;;;;3.72;2.40;;;;;;;;;;5000547;28;20022;-75
2022/07/19 13:01:45;;;;;;;2.50;2.28;;;;;;;;;;5000634;28;20034;-73
2022/07/19 13:04:12;;;;;;;7.45;2.80;;;;;;;;;;5000190;28;20076;-73
2022/07/19 13:06:44;;;;;;;5.22;3.20;;;;;;;;;;5000480;28;20026;-73
2022/07/19 13:09:13;;;;;;;5.50;2.63;;;;;;;;;;5000780;28;20037;-72
2022/07/19 13:11:51;;;;;;;3.38;2.92;;;;;;;;;;5000235;28;20046;-71
2022/07/19 13:14:23;;;;;;;3.75;2.90;;;;;;;;;;4994869;28;20044;-73
2022/07/19 13:16:55;;;;;;;3.65;2.97;;;;;;;;;;5003983;28;20480;-72
2022/07/19 13:19:29;;;;;;;4.80;2.80;;;;;;;;;;5003418;28;20030;-73
2022/07/19 13:21:58;;;;;;;4.65;2.67;;;;;;;;;;5004058;28;20050;-73
2022/07/19 13:24:27;;;;;;;3.30;2.42;;;;;;;;;;5003621;28;20128;-73
2022/07/19 13:26:55;;;;;;;5.43;2.38;;;;;;;;;;5004219;28;20026;-74
2022/07/19 13:29:29;;;;;;;4.00;2.80;;;;;;;;;;5003673;28;20072;-74
2022/07/19 13:31:59;;;;;;;6.32;2.90;;;;;;;;;;5004176;28;20037;-72
2022/07/19 13:34:26;;;;;;;4.23;2.73;;;;;;;;;;5004412;28;20033;-73
2022/07/19 13:36:59;;;;;;;6.88;2.35;;;;;;;;;;5001078;28;20025;-73
2022/07/19 13:39:25;;;;;;;3.60;2.70;;;;;;;;;;5004086;28;20029;-72
2022/07/19 13:42:00;;;;;;;7.25;3.28;;;;;;;;;;5003583;28;20033;-73
2022/07/19 13:44:26;;;;;;;4.20;2.60;;;;;;;;;;5003034;28;20566;-72
2022/07/19 13:46:54;;;;;;;5.78;2.50;;;;;;;;;;5002604;28;20156;-71
2022/07/19 13:49:23;;;;;;;4.85;2.30;;;;;;;;;;5003760;28;20034;-72
2022/07/19 13:51:50;;;;;;;3.95;2.40;;;;;;;;;;5003861;28;20494;-73
2022/07/19 13:54:27;;;;;;;8.50;2.72;;;;;;;;;;5003150;28;20522;-71
2022/07/19 13:56:55;;;;;;;10.57;2.50;;;;;;;;;;5000943;28;20398;-72
2022/07/19 13:59:30;;;;;;;4.53;2.42;;;;;;;;;;5001083;28;20041;-74
2022/07/19 14:02:04;;;;;;;4.93;2.70;;;;;;;;;;5003159;28;20399;-72
2022/07/19 14:04:33;;;;;;;6.07;2.65;;;;;;;;;;5002562;28;20545;-73
2022/07/19 14:07:05;;;;;;;3.97;2.33;;;;;;;;;;5002822;28;20684;-72
2022/07/19 14:09:31;;;;;;;4.25;2.67;;;;;;;;;;4992680;28;20057;-73
2022/07/19 14:12:00;;;;;;;3.67;2.45;;;;;;;;;;5004197;28;20080;-72
2022/07/19 14:14:28;;;;;;;4.57;2.80;;;;;;;;;;5002874;28;20402;-70
2022/07/19 14:16:59;;;;;;;4.85;3.17;;;;;;;;;;5002761;28;20026;-74
2022/07/19 14:19:25;;;;;;;8.57;2.70;;;;;;;;;;5002022;28;20034;-73
2022/07/19 14:21:51;;;;;;;7.60;2.65;;;;;;;;;;5001490;28;20468;-74
2022/07/19 14:24:22;;;;;;;5.47;2.65;;;;;;;;;;5001925;28;20056;-74
2022/07/19 14:26:53;;;;;;;5.40;2.55;;;;;;;;;;5002108;28;20444;-73
2022/07/19 14:29:34;;;;;;;3.85;2.47;;;;;;;;;;5001495;28;20049;-73
2022/07/19 14:32:00;;;;;;;3.65;2.63;;;;;;;;;;5000022;28;20099;-73
2022/07/19 14:34:31;;;;;;;10.43;2.63;;;;;;;;;;5000642;28;20037;-72
2022/07/19 14:37:00;;;;;;;4.15;2.42;;;;;;;;;;5001829;28;20034;-74
2022/07/19 14:39:35;;;;;;;3.50;2.63;;;;;;;;;;5001322;28;20037;-74
2022/07/19 14:42:03;;;;;;;6.80;2.40;;;;;;;;;;5000110;28;20399;-71
2022/07/19 14:44:35;;;;;;;8.57;2.90;;;;;;;;;;5001133;28;20034;-71
2022/07/19 14:47:06;;;;;;;14.73;2.63;;;;;;;;;;5000998;28;20037;-73
2022/07/19 14:49:40;;;;;;;7.25;2.60;;;;;;;;;;5001652;28;20103;-74
2022/07/19 14:52:11;;;;;;;5.85;2.50;;;;;;;;;;5001369;28;20077;-75
2022/07/19 14:54:39;;;;;;;7.28;2.30;;;;;;;;;;5000772;28;20087;-76
2022/07/19 14:57:05;;;;;;;4.93;2.53;;;;;;;;;;5000668;28;20057;-73
2022/07/19 14:59:47;;;;;;;6.63;2.92;;;;;;;;;;5002281;28;20599;-74